AJT844 TTPP-SMJP
Flight info
| Callsign | AJT844 |
|---|---|
| Flight time | 1h 12m |
| Altitude | 33000 |
| Route | POS UG449 GEKOS DCT DIDAR DCT SIPIX DCT ESDOG |
| Aircraft | B763/H-SDE3FGHIM3RWXY/LB1 |
Departure
| Time | 2026-04-22 20:19 |
|---|---|
| Airport | Piarco International Airport (TTPP) |
Arrival
| Time | 2026-04-22 21:31 |
|---|---|
| Airport | Johan Adolf Pengel International Airport (SMJP) |
| Time | Latitude | Longitude | Altitude | Speed | Heading |
|---|---|---|---|---|---|
| 2026-04-22 20:04 | 10.59322 | -61.34153 | 58 ft | 0 kts | 152° |
| 2026-04-22 20:11 | 10.59325 | -61.34155 | 58 ft | 2 kts | 152° |
| 2026-04-22 20:11 | 10.59338 | -61.34162 | 58 ft | 2 kts | 160° |
| 2026-04-22 20:11 | 10.59353 | -61.34164 | 58 ft | 2 kts | 189° |
| 2026-04-22 20:11 | 10.59367 | -61.34160 | 58 ft | 2 kts | 213° |
| 2026-04-22 20:12 | 10.59378 | -61.34150 | 58 ft | 2 kts | 237° |
| 2026-04-22 20:12 | 10.59384 | -61.34136 | 58 ft | 2 kts | 262° |
| 2026-04-22 20:12 | 10.59385 | -61.34131 | 58 ft | 0 kts | 270° |
| 2026-04-22 20:12 | 10.59384 | -61.34160 | 58 ft | 4 kts | 270° |
| 2026-04-22 20:13 | 10.59384 | -61.34177 | 58 ft | 0 kts | 269° |
| 2026-04-22 20:14 | 10.59384 | -61.34178 | 58 ft | 0 kts | 270° |
| 2026-04-22 20:15 | 10.59384 | -61.34194 | 58 ft | 3 kts | 269° |
| 2026-04-22 20:15 | 10.59383 | -61.34238 | 57 ft | 8 kts | 270° |
| 2026-04-22 20:15 | 10.59384 | -61.34316 | 57 ft | 12 kts | 270° |
| 2026-04-22 20:15 | 10.59384 | -61.34418 | 56 ft | 16 kts | 270° |
| 2026-04-22 20:16 | 10.59390 | -61.34535 | 55 ft | 16 kts | 285° |
| 2026-04-22 20:16 | 10.59408 | -61.34644 | 54 ft | 15 kts | 267° |
| 2026-04-22 20:16 | 10.59386 | -61.34750 | 53 ft | 15 kts | 252° |
| 2026-04-22 20:16 | 10.59357 | -61.34864 | 52 ft | 17 kts | 261° |
| 2026-04-22 20:17 | 10.59351 | -61.34985 | 51 ft | 16 kts | 270° |
| 2026-04-22 20:17 | 10.59352 | -61.35101 | 50 ft | 16 kts | 270° |
| 2026-04-22 20:17 | 10.59393 | -61.35190 | 50 ft | 13 kts | 337° |
| 2026-04-22 20:17 | 10.59482 | -61.35183 | 50 ft | 12 kts | 27° |
| 2026-04-22 20:18 | 10.59529 | -61.35124 | 50 ft | 10 kts | 76° |
| 2026-04-22 20:18 | 10.59532 | -61.34970 | 51 ft | 41 kts | 90° |
| 2026-04-22 20:18 | 10.59534 | -61.34480 | 55 ft | 95 kts | 90° |
| 2026-04-22 20:18 | 10.59537 | -61.33638 | 61 ft | 142 kts | 90° |
| 2026-04-22 20:19 | 10.59546 | -61.32499 | 208 ft | 173 kts | 91° |
| 2026-04-22 20:19 | 10.59549 | -61.31263 | 814 ft | 176 kts | 90° |
| 2026-04-22 20:19 | 10.59446 | -61.30028 | 1397 ft | 181 kts | 103° |
| 2026-04-22 20:19 | 10.58770 | -61.28892 | 1727 ft | 201 kts | 133° |
| 2026-04-22 20:20 | 10.57687 | -61.27926 | 2159 ft | 214 kts | 136° |
| 2026-04-22 20:20 | 10.56506 | -61.26886 | 2486 ft | 235 kts | 136° |
| 2026-04-22 20:20 | 10.55228 | -61.25731 | 2933 ft | 253 kts | 136° |
| 2026-04-22 20:20 | 10.53890 | -61.24513 | 3551 ft | 265 kts | 136° |
| 2026-04-22 20:21 | 10.52502 | -61.23247 | 4285 ft | 271 kts | 136° |
| 2026-04-22 20:21 | 10.51109 | -61.21951 | 5103 ft | 274 kts | 135° |
| 2026-04-22 20:21 | 10.49804 | -61.20531 | 5871 ft | 278 kts | 129° |
| 2026-04-22 20:21 | 10.48527 | -61.19046 | 6705 ft | 282 kts | 130° |
| 2026-04-22 20:22 | 10.47206 | -61.17547 | 7419 ft | 287 kts | 131° |
| 2026-04-22 20:22 | 10.45869 | -61.16036 | 8194 ft | 291 kts | 131° |
| 2026-04-22 20:22 | 10.44503 | -61.14498 | 8844 ft | 297 kts | 131° |
| 2026-04-22 20:22 | 10.43113 | -61.12938 | 9636 ft | 300 kts | 131° |
| 2026-04-22 20:23 | 10.41705 | -61.11358 | 10329 ft | 307 kts | 132° |
| 2026-04-22 20:23 | 10.40235 | -61.09709 | 10708 ft | 325 kts | 132° |
| 2026-04-22 20:23 | 10.38671 | -61.07959 | 11038 ft | 343 kts | 132° |
| 2026-04-22 20:23 | 10.37018 | -61.06108 | 11481 ft | 360 kts | 132° |
| 2026-04-22 20:24 | 10.35283 | -61.04166 | 11859 ft | 379 kts | 132° |
| 2026-04-22 20:24 | 10.33476 | -61.02143 | 12313 ft | 394 kts | 132° |
| 2026-04-22 20:24 | 10.31623 | -61.00069 | 13055 ft | 400 kts | 133° |
| 2026-04-22 20:24 | 10.29754 | -60.97979 | 13821 ft | 404 kts | 132° |
| 2026-04-22 20:25 | 10.27870 | -60.95872 | 14571 ft | 407 kts | 132° |
| 2026-04-22 20:25 | 10.25939 | -60.93712 | 15224 ft | 413 kts | 132° |
| 2026-04-22 20:25 | 10.24007 | -60.91552 | 15919 ft | 417 kts | 132° |
| 2026-04-22 20:25 | 10.22063 | -60.89378 | 16593 ft | 420 kts | 132° |
| 2026-04-22 20:26 | 10.20074 | -60.87156 | 17266 ft | 423 kts | 132° |
| 2026-04-22 20:26 | 10.18098 | -60.84947 | 17896 ft | 427 kts | 132° |
| 2026-04-22 20:26 | 10.16107 | -60.82721 | 18492 ft | 431 kts | 132° |
| 2026-04-22 20:26 | 10.14066 | -60.80441 | 19100 ft | 434 kts | 132° |
| 2026-04-22 20:27 | 10.12046 | -60.78185 | 19720 ft | 437 kts | 132° |
| 2026-04-22 20:27 | 10.09990 | -60.75888 | 20261 ft | 441 kts | 132° |
| 2026-04-22 20:27 | 10.07929 | -60.73588 | 20843 ft | 443 kts | 132° |
| 2026-04-22 20:27 | 10.05821 | -60.71234 | 21332 ft | 448 kts | 132° |
| 2026-04-22 20:28 | 10.03735 | -60.68907 | 21897 ft | 449 kts | 132° |
| 2026-04-22 20:28 | 10.01640 | -60.66570 | 22387 ft | 453 kts | 131° |
| 2026-04-22 20:28 | 9.99516 | -60.64199 | 22842 ft | 457 kts | 132° |
| 2026-04-22 20:28 | 9.97347 | -60.61778 | 23286 ft | 461 kts | 132° |
| 2026-04-22 20:29 | 9.95190 | -60.59372 | 23826 ft | 463 kts | 132° |
| 2026-04-22 20:29 | 9.93019 | -60.56953 | 24264 ft | 467 kts | 133° |
| 2026-04-22 20:29 | 9.90828 | -60.54510 | 24687 ft | 471 kts | 133° |
| 2026-04-22 20:29 | 9.88604 | -60.52032 | 25159 ft | 473 kts | 133° |
| 2026-04-22 20:30 | 9.86376 | -60.49550 | 25623 ft | 476 kts | 133° |
| 2026-04-22 20:30 | 9.84145 | -60.47065 | 26037 ft | 480 kts | 133° |
| 2026-04-22 20:30 | 9.81880 | -60.44542 | 26432 ft | 484 kts | 133° |
| 2026-04-22 20:30 | 9.79612 | -60.42018 | 26869 ft | 487 kts | 133° |
| 2026-04-22 20:31 | 9.77325 | -60.39473 | 27290 ft | 489 kts | 133° |
| 2026-04-22 20:31 | 9.75037 | -60.36926 | 27716 ft | 492 kts | 133° |
| 2026-04-22 20:31 | 9.72728 | -60.34358 | 28120 ft | 495 kts | 134° |
| 2026-04-22 20:31 | 9.70408 | -60.31776 | 28600 ft | 495 kts | 134° |
| 2026-04-22 20:32 | 9.68092 | -60.29199 | 29135 ft | 494 kts | 134° |
| 2026-04-22 20:32 | 9.65794 | -60.26641 | 29864 ft | 487 kts | 134° |
| 2026-04-22 20:32 | 9.63557 | -60.24154 | 30571 ft | 481 kts | 134° |
| 2026-04-22 20:32 | 9.61319 | -60.21666 | 31325 ft | 474 kts | 134° |
| 2026-04-22 20:33 | 9.59111 | -60.19209 | 31959 ft | 469 kts | 135° |
| 2026-04-22 20:33 | 9.56928 | -60.16783 | 32592 ft | 463 kts | 135° |
| 2026-04-22 20:33 | 9.54766 | -60.14381 | 32905 ft | 460 kts | 135° |
| 2026-04-22 20:34 | 9.50488 | -60.09631 | 32885 ft | 456 kts | 135° |
| 2026-04-22 20:34 | 9.46205 | -60.04877 | 32884 ft | 458 kts | 135° |
| 2026-04-22 20:35 | 9.41886 | -60.00084 | 32883 ft | 458 kts | 135° |
| 2026-04-22 20:35 | 9.37605 | -59.95335 | 32882 ft | 457 kts | 135° |
| 2026-04-22 20:36 | 9.33318 | -59.90581 | 32883 ft | 457 kts | 135° |
| 2026-04-22 20:36 | 9.29038 | -59.85836 | 32881 ft | 455 kts | 135° |
| 2026-04-22 20:37 | 9.24759 | -59.81096 | 32882 ft | 457 kts | 135° |
| 2026-04-22 20:37 | 9.20486 | -59.76364 | 32882 ft | 457 kts | 135° |
| 2026-04-22 20:38 | 9.16191 | -59.71608 | 32883 ft | 456 kts | 134° |
| 2026-04-22 20:38 | 9.11914 | -59.66875 | 32883 ft | 456 kts | 134° |
| 2026-04-22 20:39 | 9.07628 | -59.62132 | 32879 ft | 456 kts | 135° |
| 2026-04-22 20:39 | 9.03346 | -59.57397 | 32880 ft | 457 kts | 134° |
| 2026-04-22 20:40 | 8.99071 | -59.52671 | 32878 ft | 457 kts | 134° |
| 2026-04-22 20:40 | 8.94751 | -59.47896 | 32882 ft | 458 kts | 134° |
| 2026-04-22 20:41 | 8.90540 | -59.43105 | 32883 ft | 457 kts | 130° |
| 2026-04-22 20:41 | 8.86498 | -59.38144 | 32883 ft | 456 kts | 133° |
| 2026-04-22 20:42 | 8.82372 | -59.33248 | 32877 ft | 457 kts | 132° |
| 2026-04-22 20:42 | 8.78257 | -59.28341 | 32875 ft | 456 kts | 132° |
| 2026-04-22 20:43 | 8.74154 | -59.23444 | 32869 ft | 457 kts | 132° |
| 2026-04-22 20:43 | 8.70041 | -59.18533 | 32863 ft | 457 kts | 132° |
| 2026-04-22 20:44 | 8.65921 | -59.13615 | 32861 ft | 458 kts | 132° |
| 2026-04-22 20:44 | 8.61816 | -59.08715 | 32863 ft | 458 kts | 132° |
| 2026-04-22 20:45 | 8.57674 | -59.03775 | 32859 ft | 459 kts | 132° |
| 2026-04-22 20:45 | 8.53582 | -58.98893 | 32863 ft | 458 kts | 132° |
| 2026-04-22 20:46 | 8.47371 | -58.91489 | 32861 ft | 458 kts | 132° |
| 2026-04-22 20:46 | 8.43286 | -58.86621 | 32867 ft | 457 kts | 132° |
| 2026-04-22 20:47 | 8.39151 | -58.81697 | 32862 ft | 458 kts | 133° |
| 2026-04-22 20:47 | 8.35051 | -58.76815 | 32860 ft | 457 kts | 132° |
| 2026-04-22 20:48 | 8.30930 | -58.71909 | 32859 ft | 458 kts | 132° |
| 2026-04-22 20:48 | 8.26792 | -58.66985 | 32862 ft | 458 kts | 132° |
| 2026-04-22 20:49 | 8.22694 | -58.62111 | 32861 ft | 457 kts | 132° |
| 2026-04-22 20:49 | 8.18572 | -58.57209 | 32871 ft | 458 kts | 132° |
| 2026-04-22 20:50 | 8.14433 | -58.52291 | 32880 ft | 458 kts | 132° |
| 2026-04-22 20:50 | 8.10323 | -58.47406 | 32881 ft | 457 kts | 131° |
| 2026-04-22 20:51 | 8.06221 | -58.42533 | 32885 ft | 458 kts | 131° |
| 2026-04-22 20:51 | 8.02077 | -58.37613 | 32882 ft | 458 kts | 131° |
| 2026-04-22 20:52 | 7.97945 | -58.32708 | 32882 ft | 458 kts | 131° |
| 2026-04-22 20:52 | 7.93828 | -58.27823 | 32882 ft | 458 kts | 131° |
| 2026-04-22 20:53 | 7.89699 | -58.22926 | 32882 ft | 458 kts | 131° |
| 2026-04-22 20:53 | 7.85570 | -58.18029 | 32884 ft | 459 kts | 131° |
| 2026-04-22 20:54 | 7.81435 | -58.13126 | 32884 ft | 459 kts | 131° |
| 2026-04-22 20:54 | 7.77298 | -58.08226 | 32887 ft | 459 kts | 132° |
| 2026-04-22 20:55 | 7.73162 | -58.03326 | 32884 ft | 458 kts | 131° |
| 2026-04-22 20:55 | 7.69056 | -57.98463 | 32885 ft | 458 kts | 131° |
| 2026-04-22 20:56 | 7.64906 | -57.93550 | 32887 ft | 459 kts | 131° |
| 2026-04-22 20:56 | 7.60770 | -57.88656 | 32885 ft | 458 kts | 131° |
| 2026-04-22 20:57 | 7.56638 | -57.83767 | 32885 ft | 459 kts | 131° |
| 2026-04-22 20:57 | 7.52489 | -57.78860 | 32881 ft | 459 kts | 131° |
| 2026-04-22 20:58 | 7.48348 | -57.73965 | 32876 ft | 458 kts | 131° |
| 2026-04-22 20:58 | 7.44206 | -57.69070 | 32871 ft | 458 kts | 131° |
| 2026-04-22 20:59 | 7.40065 | -57.64177 | 32875 ft | 458 kts | 131° |
| 2026-04-22 20:59 | 7.35948 | -57.59314 | 32868 ft | 458 kts | 131° |
| 2026-04-22 21:00 | 7.31836 | -57.54457 | 32874 ft | 456 kts | 131° |
| 2026-04-22 21:00 | 7.27740 | -57.49616 | 32829 ft | 449 kts | 131° |
| 2026-04-22 21:01 | 7.25712 | -57.47224 | 32970 ft | 449 kts | 132° |
| 2026-04-22 21:01 | 7.23664 | -57.44815 | 32794 ft | 456 kts | 131° |
| 2026-04-22 21:01 | 7.19549 | -57.39956 | 32836 ft | 452 kts | 131° |
| 2026-04-22 21:02 | 7.15446 | -57.35119 | 32861 ft | 458 kts | 131° |
| 2026-04-22 21:02 | 7.11295 | -57.30226 | 32868 ft | 457 kts | 131° |
| 2026-04-22 21:03 | 7.07172 | -57.25365 | 32882 ft | 457 kts | 131° |
| 2026-04-22 21:03 | 7.03047 | -57.20506 | 32881 ft | 456 kts | 131° |
| 2026-04-22 21:04 | 6.98936 | -57.15663 | 32880 ft | 455 kts | 131° |
| 2026-04-22 21:04 | 6.94798 | -57.10791 | 32883 ft | 457 kts | 131° |
| 2026-04-22 21:05 | 6.90665 | -57.05926 | 32882 ft | 454 kts | 131° |
| 2026-04-22 21:05 | 6.86572 | -57.01108 | 32885 ft | 453 kts | 131° |
| 2026-04-22 21:06 | 6.82464 | -56.96273 | 32885 ft | 455 kts | 131° |
| 2026-04-22 21:06 | 6.79179 | -56.90841 | 32895 ft | 458 kts | 115° |
| 2026-04-22 21:07 | 6.76677 | -56.84960 | 32883 ft | 458 kts | 115° |
| 2026-04-22 21:07 | 6.74166 | -56.79041 | 32872 ft | 456 kts | 114° |
| 2026-04-22 21:08 | 6.72917 | -56.76098 | 32584 ft | 458 kts | 114° |
| 2026-04-22 21:08 | 6.71685 | -56.73194 | 32333 ft | 456 kts | 115° |
| 2026-04-22 21:08 | 6.70451 | -56.70284 | 32072 ft | 452 kts | 114° |
| 2026-04-22 21:08 | 6.69217 | -56.67394 | 31810 ft | 450 kts | 115° |
| 2026-04-22 21:09 | 6.67976 | -56.64500 | 31558 ft | 451 kts | 115° |
| 2026-04-22 21:09 | 6.66751 | -56.61602 | 31226 ft | 453 kts | 113° |
| 2026-04-22 21:09 | 6.65526 | -56.58680 | 30883 ft | 455 kts | 116° |
| 2026-04-22 21:09 | 6.64268 | -56.55736 | 30618 ft | 463 kts | 112° |
| 2026-04-22 21:10 | 6.63005 | -56.52729 | 30219 ft | 456 kts | 114° |
| 2026-04-22 21:10 | 6.61786 | -56.49840 | 29926 ft | 446 kts | 114° |
| 2026-04-22 21:10 | 6.60562 | -56.47010 | 29618 ft | 436 kts | 114° |
| 2026-04-22 21:10 | 6.59352 | -56.44237 | 29332 ft | 431 kts | 114° |
| 2026-04-22 21:11 | 6.58166 | -56.41476 | 29019 ft | 441 kts | 114° |
| 2026-04-22 21:11 | 6.56926 | -56.38614 | 28730 ft | 451 kts | 114° |
| 2026-04-22 21:11 | 6.55661 | -56.35698 | 28454 ft | 462 kts | 114° |
| 2026-04-22 21:11 | 6.54372 | -56.32744 | 28165 ft | 457 kts | 115° |
| 2026-04-22 21:12 | 6.53100 | -56.29824 | 27771 ft | 450 kts | 114° |
| 2026-04-22 21:12 | 6.51858 | -56.26996 | 27354 ft | 444 kts | 115° |
| 2026-04-22 21:12 | 6.50621 | -56.24174 | 26934 ft | 438 kts | 114° |
| 2026-04-22 21:12 | 6.49387 | -56.21384 | 26518 ft | 435 kts | 115° |
| 2026-04-22 21:13 | 6.48168 | -56.18611 | 26105 ft | 434 kts | 114° |
| 2026-04-22 21:13 | 6.46942 | -56.15841 | 25691 ft | 434 kts | 114° |
| 2026-04-22 21:13 | 6.45692 | -56.13076 | 25283 ft | 433 kts | 117° |
| 2026-04-22 21:13 | 6.44181 | -56.10461 | 24872 ft | 431 kts | 122° |
| 2026-04-22 21:14 | 6.42572 | -56.07920 | 24466 ft | 430 kts | 122° |
| 2026-04-22 21:14 | 6.40962 | -56.05402 | 24054 ft | 428 kts | 122° |
| 2026-04-22 21:14 | 6.39348 | -56.02898 | 23648 ft | 425 kts | 122° |
| 2026-04-22 21:14 | 6.37747 | -56.00440 | 23242 ft | 423 kts | 122° |
| 2026-04-22 21:15 | 6.36141 | -55.97983 | 22849 ft | 421 kts | 122° |
| 2026-04-22 21:15 | 6.34448 | -55.95590 | 22448 ft | 421 kts | 129° |
| 2026-04-22 21:15 | 6.32451 | -55.93406 | 22063 ft | 419 kts | 132° |
| 2026-04-22 21:15 | 6.30439 | -55.91286 | 21667 ft | 418 kts | 132° |
| 2026-04-22 21:16 | 6.28441 | -55.89189 | 21268 ft | 413 kts | 132° |
| 2026-04-22 21:16 | 6.26462 | -55.87107 | 20861 ft | 410 kts | 132° |
| 2026-04-22 21:16 | 6.24491 | -55.85045 | 20361 ft | 410 kts | 132° |
| 2026-04-22 21:16 | 6.22521 | -55.82979 | 19821 ft | 408 kts | 132° |
| 2026-04-22 21:17 | 6.20561 | -55.80930 | 19289 ft | 406 kts | 132° |
| 2026-04-22 21:17 | 6.18610 | -55.78887 | 18755 ft | 405 kts | 132° |
| 2026-04-22 21:17 | 6.16662 | -55.76860 | 18219 ft | 403 kts | 132° |
| 2026-04-22 21:17 | 6.14726 | -55.74850 | 17687 ft | 401 kts | 132° |
| 2026-04-22 21:18 | 6.12790 | -55.72837 | 17158 ft | 399 kts | 132° |
| 2026-04-22 21:18 | 6.10867 | -55.70843 | 16631 ft | 397 kts | 132° |
| 2026-04-22 21:18 | 6.08944 | -55.68829 | 16097 ft | 395 kts | 132° |
| 2026-04-22 21:18 | 6.07055 | -55.66842 | 15572 ft | 393 kts | 132° |
| 2026-04-22 21:19 | 6.05178 | -55.64864 | 15040 ft | 391 kts | 132° |
| 2026-04-22 21:19 | 6.03313 | -55.62893 | 14469 ft | 387 kts | 132° |
| 2026-04-22 21:19 | 6.01484 | -55.60938 | 13922 ft | 379 kts | 132° |
| 2026-04-22 21:19 | 5.99695 | -55.59022 | 13379 ft | 372 kts | 132° |
| 2026-04-22 21:20 | 5.97941 | -55.57144 | 12837 ft | 365 kts | 132° |
| 2026-04-22 21:20 | 5.96216 | -55.55298 | 12297 ft | 359 kts | 132° |
| 2026-04-22 21:20 | 5.94437 | -55.53604 | 11757 ft | 353 kts | 144° |
| 2026-04-22 21:20 | 5.92261 | -55.52448 | 11226 ft | 347 kts | 161° |
| 2026-04-22 21:21 | 5.89950 | -55.51812 | 10629 ft | 341 kts | 164° |
| 2026-04-22 21:21 | 5.87686 | -55.51138 | 10066 ft | 334 kts | 162° |
| 2026-04-22 21:21 | 5.85511 | -55.50458 | 9554 ft | 327 kts | 161° |
| 2026-04-22 21:21 | 5.83342 | -55.49750 | 9048 ft | 318 kts | 161° |
| 2026-04-22 21:22 | 5.81267 | -55.49063 | 8544 ft | 309 kts | 161° |
| 2026-04-22 21:22 | 5.79277 | -55.48397 | 8072 ft | 301 kts | 160° |
| 2026-04-22 21:22 | 5.77293 | -55.47727 | 7604 ft | 293 kts | 160° |
| 2026-04-22 21:22 | 5.75383 | -55.47081 | 7158 ft | 285 kts | 160° |
| 2026-04-22 21:23 | 5.73524 | -55.46450 | 6776 ft | 277 kts | 160° |
| 2026-04-22 21:23 | 5.71716 | -55.45835 | 6426 ft | 270 kts | 160° |
| 2026-04-22 21:23 | 5.69949 | -55.45235 | 6095 ft | 266 kts | 160° |
| 2026-04-22 21:23 | 5.68208 | -55.44643 | 5757 ft | 261 kts | 159° |
| 2026-04-22 21:24 | 5.66488 | -55.44058 | 5409 ft | 257 kts | 159° |
| 2026-04-22 21:24 | 5.64803 | -55.43485 | 5060 ft | 254 kts | 159° |
| 2026-04-22 21:24 | 5.63141 | -55.42919 | 4722 ft | 250 kts | 159° |
| 2026-04-22 21:24 | 5.61491 | -55.42358 | 4397 ft | 248 kts | 159° |
| 2026-04-22 21:25 | 5.59872 | -55.41808 | 4068 ft | 244 kts | 159° |
| 2026-04-22 21:25 | 5.58279 | -55.41266 | 3749 ft | 239 kts | 158° |
| 2026-04-22 21:25 | 5.56722 | -55.40738 | 3473 ft | 233 kts | 158° |
| 2026-04-22 21:25 | 5.55186 | -55.40215 | 3254 ft | 227 kts | 158° |
| 2026-04-22 21:26 | 5.53697 | -55.39709 | 3061 ft | 225 kts | 158° |
| 2026-04-22 21:26 | 5.52209 | -55.39202 | 2872 ft | 221 kts | 158° |
| 2026-04-22 21:26 | 5.50767 | -55.38712 | 2678 ft | 216 kts | 158° |
| 2026-04-22 21:26 | 5.49347 | -55.38229 | 2443 ft | 213 kts | 158° |
| 2026-04-22 21:27 | 5.47950 | -55.37754 | 2248 ft | 209 kts | 158° |
| 2026-04-22 21:27 | 5.46606 | -55.37277 | 2114 ft | 197 kts | 151° |
| 2026-04-22 21:27 | 5.45635 | -55.36402 | 1875 ft | 181 kts | 121° |
| 2026-04-22 21:27 | 5.45259 | -55.35288 | 1854 ft | 163 kts | 89° |
| 2026-04-22 21:28 | 5.45253 | -55.34148 | 1946 ft | 167 kts | 90° |
| 2026-04-22 21:28 | 5.45224 | -55.32949 | 1898 ft | 173 kts | 90° |
| 2026-04-22 21:28 | 5.45212 | -55.31746 | 1875 ft | 167 kts | 89° |
| 2026-04-22 21:28 | 5.45207 | -55.30585 | 1884 ft | 167 kts | 89° |
| 2026-04-22 21:29 | 5.45209 | -55.29405 | 1787 ft | 172 kts | 89° |
| 2026-04-22 21:29 | 5.45212 | -55.28226 | 1574 ft | 164 kts | 89° |
| 2026-04-22 21:29 | 5.45216 | -55.27129 | 1331 ft | 155 kts | 89° |
| 2026-04-22 21:29 | 5.45223 | -55.26057 | 1130 ft | 153 kts | 89° |
| 2026-04-22 21:30 | 5.45230 | -55.24987 | 1040 ft | 153 kts | 88° |
| 2026-04-22 21:30 | 5.45237 | -55.23890 | 812 ft | 160 kts | 88° |
| 2026-04-22 21:30 | 5.45244 | -55.22783 | 562 ft | 156 kts | 88° |
| 2026-04-22 21:30 | 5.45255 | -55.21715 | 325 ft | 151 kts | 87° |
| 2026-04-22 21:31 | 5.45269 | -55.20643 | 153 ft | 155 kts | 88° |
| 2026-04-22 21:31 | 5.45275 | -55.19564 | 62 ft | 149 kts | 89° |
| 2026-04-22 21:31 | 5.45279 | -55.18653 | 62 ft | 97 kts | 90° |
| 2026-04-22 21:31 | 5.45280 | -55.18203 | 63 ft | 49 kts | 90° |
| 2026-04-22 21:32 | 5.45277 | -55.17861 | 63 ft | 46 kts | 89° |
| 2026-04-22 21:32 | 5.45282 | -55.17572 | 64 ft | 28 kts | 89° |
| 2026-04-22 21:32 | 5.45324 | -55.17437 | 64 ft | 18 kts | 44° |
| 2026-04-22 21:32 | 5.45415 | -55.17348 | 64 ft | 17 kts | 45° |
| 2026-04-22 21:33 | 5.45447 | -55.17240 | 64 ft | 15 kts | 101° |
| 2026-04-22 21:33 | 5.45374 | -55.17192 | 64 ft | 12 kts | 180° |
| 2026-04-22 21:33 | 5.45298 | -55.17221 | 64 ft | 10 kts | 233° |
| 2026-04-22 21:33 | 5.45288 | -55.17310 | 64 ft | 19 kts | 270° |
| 2026-04-22 21:34 | 5.45286 | -55.17496 | 64 ft | 33 kts | 269° |
| 2026-04-22 21:34 | 5.45285 | -55.17745 | 64 ft | 36 kts | 270° |
| 2026-04-22 21:34 | 5.45286 | -55.17994 | 63 ft | 34 kts | 270° |
| 2026-04-22 21:34 | 5.45283 | -55.18231 | 63 ft | 33 kts | 269° |
| 2026-04-22 21:35 | 5.45279 | -55.18457 | 63 ft | 31 kts | 269° |
| 2026-04-22 21:35 | 5.45281 | -55.18675 | 62 ft | 30 kts | 270° |
| 2026-04-22 21:35 | 5.45279 | -55.18883 | 61 ft | 29 kts | 268° |
| 2026-04-22 21:35 | 5.45280 | -55.19084 | 60 ft | 28 kts | 270° |
| 2026-04-22 21:36 | 5.45280 | -55.19278 | 59 ft | 27 kts | 269° |
| 2026-04-22 21:36 | 5.45278 | -55.19448 | 59 ft | 20 kts | 269° |
| 2026-04-22 21:36 | 5.45276 | -55.19586 | 59 ft | 19 kts | 269° |
| 2026-04-22 21:36 | 5.45288 | -55.19704 | 59 ft | 13 kts | 303° |
| 2026-04-22 21:37 | 5.45368 | -55.19729 | 59 ft | 12 kts | 359° |
| 2026-04-22 21:37 | 5.45436 | -55.19760 | 59 ft | 9 kts | 301° |
| 2026-04-22 21:37 | 5.45467 | -55.19797 | 59 ft | 6 kts | 336° |
| 2026-04-22 21:37 | 5.45507 | -55.19805 | 59 ft | 6 kts | 356° |
| 2026-04-22 21:38 | 5.45526 | -55.19805 | 59 ft | 1 kts | 1° |